sensor_id;sensor_type;location;lat;lon;timestamp;P1;durP1;ratioP1;P2;durP2;ratioP2
7817;SDS011;3954;52.624;9.212;2023-06-04T00:00:52;1.87;;;1.60;;
7817;SDS011;3954;52.624;9.212;2023-06-04T00:03:18;1.80;;;1.60;;
7817;SDS011;3954;52.624;9.212;2023-06-04T00:05:45;1.97;;;1.57;;
7817;SDS011;3954;52.624;9.212;2023-06-04T00:08:11;2.00;;;1.80;;
7817;SDS011;3954;52.624;9.212;2023-06-04T00:10:37;3.17;;;1.90;;
7817;SDS011;3954;52.624;9.212;2023-06-04T00:13:04;1.40;;;1.30;;
7817;SDS011;3954;52.624;9.212;2023-06-04T00:15:30;1.70;;;1.60;;
7817;SDS011;3954;52.624;9.212;2023-06-04T00:17:56;2.57;;;1.90;;
7817;SDS011;3954;52.624;9.212;2023-06-04T00:20:22;1.90;;;1.70;;
7817;SDS011;3954;52.624;9.212;2023-06-04T00:22:50;2.43;;;1.80;;
7817;SDS011;3954;52.624;9.212;2023-06-04T00:25:16;1.87;;;1.77;;
7817;SDS011;3954;52.624;9.212;2023-06-04T00:27:42;2.67;;;1.80;;
7817;SDS011;3954;52.624;9.212;2023-06-04T00:30:08;2.20;;;2.00;;
7817;SDS011;3954;52.624;9.212;2023-06-04T00:32:34;2.60;;;2.23;;
7817;SDS011;3954;52.624;9.212;2023-06-04T00:35:01;2.63;;;2.23;;
7817;SDS011;3954;52.624;9.212;2023-06-04T00:37:28;3.30;;;2.30;;
7817;SDS011;3954;52.624;9.212;2023-06-04T00:39:56;5.17;;;2.50;;
7817;SDS011;3954;52.624;9.212;2023-06-04T00:42:22;3.93;;;2.10;;
7817;SDS011;3954;52.624;9.212;2023-06-04T00:44:49;3.00;;;2.07;;
7817;SDS011;3954;52.624;9.212;2023-06-04T00:47:15;3.47;;;1.83;;
7817;SDS011;3954;52.624;9.212;2023-06-04T00:49:41;2.37;;;2.10;;
7817;SDS011;3954;52.624;9.212;2023-06-04T00:52:07;2.43;;;1.73;;
7817;SDS011;3954;52.624;9.212;2023-06-04T00:54:34;1.80;;;1.70;;
7817;SDS011;3954;52.624;9.212;2023-06-04T00:57:01;3.40;;;2.00;;
7817;SDS011;3954;52.624;9.212;2023-06-04T00:59:28;3.20;;;1.80;;
7817;SDS011;3954;52.624;9.212;2023-06-04T01:01:54;2.33;;;2.10;;
7817;SDS011;3954;52.624;9.212;2023-06-04T01:04:24;2.47;;;1.93;;
7817;SDS011;3954;52.624;9.212;2023-06-04T01:06:51;4.50;;;2.07;;
7817;SDS011;3954;52.624;9.212;2023-06-04T01:09:18;4.07;;;1.80;;
7817;SDS011;3954;52.624;9.212;2023-06-04T01:11:45;2.30;;;1.90;;
7817;SDS011;3954;52.624;9.212;2023-06-04T01:14:12;4.43;;;1.90;;
7817;SDS011;3954;52.624;9.212;2023-06-04T01:16:39;3.53;;;2.10;;
7817;SDS011;3954;52.624;9.212;2023-06-04T01:19:09;7.33;;;2.33;;
7817;SDS011;3954;52.624;9.212;2023-06-04T01:21:45;3.07;;;1.90;;
7817;SDS011;3954;52.624;9.212;2023-06-04T01:24:14;3.00;;;1.83;;
7817;SDS011;3954;52.624;9.212;2023-06-04T01:26:40;3.23;;;2.13;;
7817;SDS011;3954;52.624;9.212;2023-06-04T01:29:07;4.20;;;2.20;;
7817;SDS011;3954;52.624;9.212;2023-06-04T01:31:35;2.57;;;1.90;;
7817;SDS011;3954;52.624;9.212;2023-06-04T01:34:02;3.57;;;2.00;;
7817;SDS011;3954;52.624;9.212;2023-06-04T01:36:28;2.37;;;2.03;;
7817;SDS011;3954;52.624;9.212;2023-06-04T01:38:54;3.23;;;2.20;;
7817;SDS011;3954;52.624;9.212;2023-06-04T01:41:20;2.27;;;1.80;;
7817;SDS011;3954;52.624;9.212;2023-06-04T01:43:46;2.67;;;2.20;;
7817;SDS011;3954;52.624;9.212;2023-06-04T01:46:12;2.80;;;2.10;;
7817;SDS011;3954;52.624;9.212;2023-06-04T01:48:40;4.10;;;2.27;;
7817;SDS011;3954;52.624;9.212;2023-06-04T01:51:06;2.90;;;1.63;;
7817;SDS011;3954;52.624;9.212;2023-06-04T01:53:32;4.10;;;2.13;;
7817;SDS011;3954;52.624;9.212;2023-06-04T01:55:58;4.30;;;2.30;;
7817;SDS011;3954;52.624;9.212;2023-06-04T01:58:24;2.72;;;2.13;;
7817;SDS011;3954;52.624;9.212;2023-06-04T02:00:54;3.23;;;2.13;;
7817;SDS011;3954;52.624;9.212;2023-06-04T02:03:20;2.80;;;2.10;;
7817;SDS011;3954;52.624;9.212;2023-06-04T02:05:48;3.30;;;1.90;;
7817;SDS011;3954;52.624;9.212;2023-06-04T02:08:14;2.80;;;2.10;;
7817;SDS011;3954;52.624;9.212;2023-06-04T02:10:47;2.07;;;1.90;;
7817;SDS011;3954;52.624;9.212;2023-06-04T02:13:13;3.63;;;2.20;;
7817;SDS011;3954;52.624;9.212;2023-06-04T02:15:40;2.67;;;2.00;;
7817;SDS011;3954;52.624;9.212;2023-06-04T02:18:12;3.33;;;2.10;;
7817;SDS011;3954;52.624;9.212;2023-06-04T02:20:42;2.43;;;1.87;;
7817;SDS011;3954;52.624;9.212;2023-06-04T02:23:10;3.00;;;1.90;;
7817;SDS011;3954;52.624;9.212;2023-06-04T02:25:36;2.37;;;1.67;;
7817;SDS011;3954;52.624;9.212;2023-06-04T02:28:02;2.10;;;1.90;;
7817;SDS011;3954;52.624;9.212;2023-06-04T02:30:28;2.03;;;1.83;;
7817;SDS011;3954;52.624;9.212;2023-06-04T02:32:54;2.20;;;2.00;;
7817;SDS011;3954;52.624;9.212;2023-06-04T02:35:21;2.23;;;1.77;;
7817;SDS011;3954;52.624;9.212;2023-06-04T02:37:48;1.97;;;1.80;;
7817;SDS011;3954;52.624;9.212;2023-06-04T02:40:16;2.40;;;1.70;;
7817;SDS011;3954;52.624;9.212;2023-06-04T02:42:42;3.00;;;2.27;;
7817;SDS011;3954;52.624;9.212;2023-06-04T02:45:09;3.07;;;1.90;;
7817;SDS011;3954;52.624;9.212;2023-06-04T02:47:35;2.90;;;2.30;;
7817;SDS011;3954;52.624;9.212;2023-06-04T02:50:01;4.23;;;2.13;;
7817;SDS011;3954;52.624;9.212;2023-06-04T02:52:28;2.10;;;1.90;;
7817;SDS011;3954;52.624;9.212;2023-06-04T02:54:55;2.67;;;2.00;;
7817;SDS011;3954;52.624;9.212;2023-06-04T02:57:23;3.63;;;2.20;;
7817;SDS011;3954;52.624;9.212;2023-06-04T02:59:49;2.27;;;2.07;;
7817;SDS011;3954;52.624;9.212;2023-06-04T03:02:16;2.50;;;2.20;;
7817;SDS011;3954;52.624;9.212;2023-06-04T03:04:42;2.50;;;2.00;;
7817;SDS011;3954;52.624;9.212;2023-06-04T03:07:09;2.50;;;2.00;;
7817;SDS011;3954;52.624;9.212;2023-06-04T03:09:36;2.70;;;2.07;;
7817;SDS011;3954;52.624;9.212;2023-06-04T03:12:02;3.33;;;2.40;;
7817;SDS011;3954;52.624;9.212;2023-06-04T03:14:31;3.57;;;2.10;;
7817;SDS011;3954;52.624;9.212;2023-06-04T03:16:58;2.53;;;2.30;;
7817;SDS011;3954;52.624;9.212;2023-06-04T03:19:26;2.40;;;2.20;;
7817;SDS011;3954;52.624;9.212;2023-06-04T03:21:52;3.17;;;2.03;;
7817;SDS011;3954;52.624;9.212;2023-06-04T03:24:18;2.40;;;1.90;;
7817;SDS011;3954;52.624;9.212;2023-06-04T03:26:44;2.57;;;1.93;;
7817;SDS011;3954;52.624;9.212;2023-06-04T03:29:10;2.17;;;2.00;;
7817;SDS011;3954;52.624;9.212;2023-06-04T03:31:38;2.67;;;2.33;;
7817;SDS011;3954;52.624;9.212;2023-06-04T03:34:04;3.50;;;2.33;;
7817;SDS011;3954;52.624;9.212;2023-06-04T03:36:30;2.13;;;1.93;;
7817;SDS011;3954;52.624;9.212;2023-06-04T03:38:56;2.30;;;2.10;;
7817;SDS011;3954;52.624;9.212;2023-06-04T03:41:22;2.30;;;2.10;;
7817;SDS011;3954;52.624;9.212;2023-06-04T03:43:48;2.53;;;2.30;;
7817;SDS011;3954;52.624;9.212;2023-06-04T03:46:14;2.53;;;2.17;;
7817;SDS011;3954;52.624;9.212;2023-06-04T03:48:41;2.67;;;2.00;;
7817;SDS011;3954;52.624;9.212;2023-06-04T03:51:07;2.30;;;2.13;;
7817;SDS011;3954;52.624;9.212;2023-06-04T03:53:33;2.87;;;1.90;;
7817;SDS011;3954;52.624;9.212;2023-06-04T03:55:59;2.50;;;2.30;;
7817;SDS011;3954;52.624;9.212;2023-06-04T03:58:25;4.43;;;2.33;;
7817;SDS011;3954;52.624;9.212;2023-06-04T04:00:53;3.47;;;2.30;;
7817;SDS011;3954;52.624;9.212;2023-06-04T04:03:19;2.30;;;2.00;;
7817;SDS011;3954;52.624;9.212;2023-06-04T04:05:48;2.80;;;2.17;;
7817;SDS011;3954;52.624;9.212;2023-06-04T04:08:14;2.13;;;2.00;;
7817;SDS011;3954;52.624;9.212;2023-06-04T04:10:41;3.13;;;2.30;;
7817;SDS011;3954;52.624;9.212;2023-06-04T04:13:07;3.30;;;2.13;;
7817;SDS011;3954;52.624;9.212;2023-06-04T04:15:33;2.37;;;2.00;;
7817;SDS011;3954;52.624;9.212;2023-06-04T04:17:59;4.40;;;2.20;;
7817;SDS011;3954;52.624;9.212;2023-06-04T04:20:26;3.87;;;2.23;;
7817;SDS011;3954;52.624;9.212;2023-06-04T04:22:53;3.50;;;2.20;;
7817;SDS011;3954;52.624;9.212;2023-06-04T04:25:20;2.30;;;2.10;;
7817;SDS011;3954;52.624;9.212;2023-06-04T04:27:46;4.13;;;2.30;;
7817;SDS011;3954;52.624;9.212;2023-06-04T04:30:13;3.70;;;2.20;;
7817;SDS011;3954;52.624;9.212;2023-06-04T04:32:40;4.07;;;2.33;;
7817;SDS011;3954;52.624;9.212;2023-06-04T04:35:13;2.47;;;2.00;;
7817;SDS011;3954;52.624;9.212;2023-06-04T04:37:43;3.00;;;2.00;;
7817;SDS011;3954;52.624;9.212;2023-06-04T04:40:11;4.30;;;2.23;;
7817;SDS011;3954;52.624;9.212;2023-06-04T04:42:37;3.03;;;2.30;;
7817;SDS011;3954;52.624;9.212;2023-06-04T04:45:03;3.50;;;2.30;;
7817;SDS011;3954;52.624;9.212;2023-06-04T04:47:29;2.30;;;2.10;;
7817;SDS011;3954;52.624;9.212;2023-06-04T04:49:55;2.20;;;2.00;;
7817;SDS011;3954;52.624;9.212;2023-06-04T04:52:21;2.57;;;2.10;;
7817;SDS011;3954;52.624;9.212;2023-06-04T04:54:47;2.60;;;2.10;;
7817;SDS011;3954;52.624;9.212;2023-06-04T04:57:15;3.23;;;1.90;;
7817;SDS011;3954;52.624;9.212;2023-06-04T04:59:41;3.37;;;2.20;;
7817;SDS011;3954;52.624;9.212;2023-06-04T05:02:07;3.27;;;2.53;;
7817;SDS011;3954;52.624;9.212;2023-06-04T05:04:33;2.07;;;1.90;;
7817;SDS011;3954;52.624;9.212;2023-06-04T05:06:59;3.03;;;2.23;;
7817;SDS011;3954;52.624;9.212;2023-06-04T05:09:25;2.27;;;2.07;;
7817;SDS011;3954;52.624;9.212;2023-06-04T05:11:51;2.37;;;2.10;;
7817;SDS011;3954;52.624;9.212;2023-06-04T05:14:18;5.83;;;1.90;;
7817;SDS011;3954;52.624;9.212;2023-06-04T05:16:44;2.10;;;1.90;;
7817;SDS011;3954;52.624;9.212;2023-06-04T05:19:10;2.10;;;1.90;;
7817;SDS011;3954;52.624;9.212;2023-06-04T05:21:36;2.10;;;1.90;;
7817;SDS011;3954;52.624;9.212;2023-06-04T05:24:02;2.20;;;2.00;;
7817;SDS011;3954;52.624;9.212;2023-06-04T05:26:28;1.90;;;1.70;;
7817;SDS011;3954;52.624;9.212;2023-06-04T05:28:54;3.03;;;1.93;;
7817;SDS011;3954;52.624;9.212;2023-06-04T05:31:22;1.90;;;1.70;;
7817;SDS011;3954;52.624;9.212;2023-06-04T05:33:51;2.00;;;1.70;;
7817;SDS011;3954;52.624;9.212;2023-06-04T05:36:17;1.83;;;1.70;;
7817;SDS011;3954;52.624;9.212;2023-06-04T05:38:43;2.23;;;1.90;;
7817;SDS011;3954;52.624;9.212;2023-06-04T05:41:09;2.17;;;1.70;;
7817;SDS011;3954;52.624;9.212;2023-06-04T05:43:37;2.97;;;1.73;;
7817;SDS011;3954;52.624;9.212;2023-06-04T05:46:03;2.20;;;2.00;;
7817;SDS011;3954;52.624;9.212;2023-06-04T05:48:32;1.70;;;1.60;;
7817;SDS011;3954;52.624;9.212;2023-06-04T05:50:58;2.00;;;1.70;;
7817;SDS011;3954;52.624;9.212;2023-06-04T05:53:24;3.33;;;1.60;;
7817;SDS011;3954;52.624;9.212;2023-06-04T05:55:50;1.60;;;1.50;;
7817;SDS011;3954;52.624;9.212;2023-06-04T05:58:16;3.27;;;1.80;;
7817;SDS011;3954;52.624;9.212;2023-06-04T06:00:42;2.97;;;1.57;;
7817;SDS011;3954;52.624;9.212;2023-06-04T06:03:09;3.50;;;1.87;;
7817;SDS011;3954;52.624;9.212;2023-06-04T06:05:37;1.60;;;1.50;;
7817;SDS011;3954;52.624;9.212;2023-06-04T06:08:03;2.20;;;1.53;;
7817;SDS011;3954;52.624;9.212;2023-06-04T06:10:30;1.80;;;1.70;;
7817;SDS011;3954;52.624;9.212;2023-06-04T06:12:56;2.20;;;1.63;;
7817;SDS011;3954;52.624;9.212;2023-06-04T06:15:22;1.73;;;1.60;;
7817;SDS011;3954;52.624;9.212;2023-06-04T06:17:48;1.50;;;1.40;;
7817;SDS011;3954;52.624;9.212;2023-06-04T06:20:14;1.40;;;1.30;;
7817;SDS011;3954;52.624;9.212;2023-06-04T06:22:44;1.87;;;1.37;;
7817;SDS011;3954;52.624;9.212;2023-06-04T06:25:10;1.33;;;1.23;;
7817;SDS011;3954;52.624;9.212;2023-06-04T06:27:40;1.40;;;1.30;;
7817;SDS011;3954;52.624;9.212;2023-06-04T06:30:07;3.00;;;1.50;;
7817;SDS011;3954;52.624;9.212;2023-06-04T06:32:33;1.37;;;1.27;;
7817;SDS011;3954;52.624;9.212;2023-06-04T06:35:00;1.33;;;1.20;;
7817;SDS011;3954;52.624;9.212;2023-06-04T06:37:26;1.07;;;1.07;;
7817;SDS011;3954;52.624;9.212;2023-06-04T06:39:53;2.23;;;1.30;;
7817;SDS011;3954;52.624;9.212;2023-06-04T06:42:19;1.50;;;1.40;;
7817;SDS011;3954;52.624;9.212;2023-06-04T06:44:45;3.10;;;1.40;;
7817;SDS011;3954;52.624;9.212;2023-06-04T06:47:11;1.30;;;1.20;;
7817;SDS011;3954;52.624;9.212;2023-06-04T06:49:38;2.43;;;1.50;;
7817;SDS011;3954;52.624;9.212;2023-06-04T06:52:05;3.00;;;1.50;;
7817;SDS011;3954;52.624;9.212;2023-06-04T06:54:31;1.40;;;1.30;;
7817;SDS011;3954;52.624;9.212;2023-06-04T06:56:58;2.03;;;1.50;;
7817;SDS011;3954;52.624;9.212;2023-06-04T06:59:24;2.30;;;1.20;;
7817;SDS011;3954;52.624;9.212;2023-06-04T07:01:50;2.03;;;1.40;;
7817;SDS011;3954;52.624;9.212;2023-06-04T07:04:16;1.70;;;1.27;;
7817;SDS011;3954;52.624;9.212;2023-06-04T07:06:42;3.30;;;1.40;;
7817;SDS011;3954;52.624;9.212;2023-06-04T07:09:08;1.63;;;1.30;;
7817;SDS011;3954;52.624;9.212;2023-06-04T07:11:34;1.47;;;1.37;;
7817;SDS011;3954;52.624;9.212;2023-06-04T07:14:02;2.63;;;1.40;;
7817;SDS011;3954;52.624;9.212;2023-06-04T07:16:28;1.63;;;1.30;;
7817;SDS011;3954;52.624;9.212;2023-06-04T07:18:54;3.73;;;1.30;;
7817;SDS011;3954;52.624;9.212;2023-06-04T07:21:20;1.93;;;1.40;;
7817;SDS011;3954;52.624;9.212;2023-06-04T07:23:48;1.63;;;1.33;;
7817;SDS011;3954;52.624;9.212;2023-06-04T07:26:15;2.80;;;1.20;;
7817;SDS011;3954;52.624;9.212;2023-06-04T07:28:42;1.53;;;1.20;;
7817;SDS011;3954;52.624;9.212;2023-06-04T07:31:10;1.17;;;1.07;;
7817;SDS011;3954;52.624;9.212;2023-06-04T07:33:36;1.70;;;1.20;;
7817;SDS011;3954;52.624;9.212;2023-06-04T07:36:08;1.43;;;0.97;;
7817;SDS011;3954;52.624;9.212;2023-06-04T07:38:34;1.07;;;1.00;;
7817;SDS011;3954;52.624;9.212;2023-06-04T07:41:00;1.57;;;1.30;;
7817;SDS011;3954;52.624;9.212;2023-06-04T07:43:26;1.50;;;1.40;;
7817;SDS011;3954;52.624;9.212;2023-06-04T07:45:52;3.10;;;1.20;;
7817;SDS011;3954;52.624;9.212;2023-06-04T07:48:19;1.30;;;1.00;;
7817;SDS011;3954;52.624;9.212;2023-06-04T07:50:45;1.37;;;1.10;;
7817;SDS011;3954;52.624;9.212;2023-06-04T07:53:11;1.60;;;1.20;;
7817;SDS011;3954;52.624;9.212;2023-06-04T07:55:37;1.50;;;1.20;;
7817;SDS011;3954;52.624;9.212;2023-06-04T07:58:03;1.13;;;0.87;;
7817;SDS011;3954;52.624;9.212;2023-06-04T08:00:30;1.33;;;1.17;;
7817;SDS011;3954;52.624;9.212;2023-06-04T08:02:56;5.63;;;1.30;;
7817;SDS011;3954;52.624;9.212;2023-06-04T08:05:23;1.93;;;1.40;;
7817;SDS011;3954;52.624;9.212;2023-06-04T08:07:49;3.20;;;1.40;;
7817;SDS011;3954;52.624;9.212;2023-06-04T08:10:15;2.13;;;1.20;;
7817;SDS011;3954;52.624;9.212;2023-06-04T08:12:41;2.80;;;1.30;;
7817;SDS011;3954;52.624;9.212;2023-06-04T08:15:07;1.50;;;1.03;;
7817;SDS011;3954;52.624;9.212;2023-06-04T08:17:33;1.30;;;1.20;;
7817;SDS011;3954;52.624;9.212;2023-06-04T08:20:00;2.10;;;1.17;;
7817;SDS011;3954;52.624;9.212;2023-06-04T08:22:27;1.57;;;1.40;;
7817;SDS011;3954;52.624;9.212;2023-06-04T08:24:54;1.20;;;1.10;;
7817;SDS011;3954;52.624;9.212;2023-06-04T08:27:20;2.17;;;1.03;;
7817;SDS011;3954;52.624;9.212;2023-06-04T08:29:46;1.23;;;1.10;;
7817;SDS011;3954;52.624;9.212;2023-06-04T08:32:13;1.43;;;1.10;;
7817;SDS011;3954;52.624;9.212;2023-06-04T08:34:39;1.10;;;1.00;;
7817;SDS011;3954;52.624;9.212;2023-06-04T08:37:05;1.50;;;1.17;;
7817;SDS011;3954;52.624;9.212;2023-06-04T08:39:33;1.70;;;1.30;;
7817;SDS011;3954;52.624;9.212;2023-06-04T08:42:00;1.40;;;1.17;;
7817;SDS011;3954;52.624;9.212;2023-06-04T08:44:27;1.40;;;1.30;;
7817;SDS011;3954;52.624;9.212;2023-06-04T08:46:54;2.23;;;1.23;;
7817;SDS011;3954;52.624;9.212;2023-06-04T08:49:27;1.30;;;0.97;;
7817;SDS011;3954;52.624;9.212;2023-06-04T08:51:55;2.23;;;1.20;;
7817;SDS011;3954;52.624;9.212;2023-06-04T08:54:21;1.40;;;1.20;;
7817;SDS011;3954;52.624;9.212;2023-06-04T08:56:49;2.13;;;1.40;;
7817;SDS011;3954;52.624;9.212;2023-06-04T08:59:16;1.30;;;1.20;;
7817;SDS011;3954;52.624;9.212;2023-06-04T09:01:43;2.17;;;1.13;;
7817;SDS011;3954;52.624;9.212;2023-06-04T09:04:10;2.30;;;1.27;;
7817;SDS011;3954;52.624;9.212;2023-06-04T09:06:37;2.10;;;1.13;;
7817;SDS011;3954;52.624;9.212;2023-06-04T09:09:05;3.07;;;1.20;;
7817;SDS011;3954;52.624;9.212;2023-06-04T09:11:35;1.13;;;1.03;;
7817;SDS011;3954;52.624;9.212;2023-06-04T09:14:03;1.87;;;1.10;;
7817;SDS011;3954;52.624;9.212;2023-06-04T09:16:29;1.70;;;1.20;;
7817;SDS011;3954;52.624;9.212;2023-06-04T09:19:02;2.43;;;1.07;;
7817;SDS011;3954;52.624;9.212;2023-06-04T09:21:29;0.90;;;0.90;;
7817;SDS011;3954;52.624;9.212;2023-06-04T09:23:57;1.90;;;1.20;;
7817;SDS011;3954;52.624;9.212;2023-06-04T09:26:23;1.40;;;1.03;;
7817;SDS011;3954;52.624;9.212;2023-06-04T09:28:49;1.33;;;1.10;;
7817;SDS011;3954;52.624;9.212;2023-06-04T09:31:19;2.60;;;1.30;;
7817;SDS011;3954;52.624;9.212;2023-06-04T09:33:47;1.57;;;1.00;;
7817;SDS011;3954;52.624;9.212;2023-06-04T09:36:14;1.37;;;1.10;;
7817;SDS011;3954;52.624;9.212;2023-06-04T09:38:40;1.40;;;0.83;;
7817;SDS011;3954;52.624;9.212;2023-06-04T09:41:10;1.93;;;0.97;;
7817;SDS011;3954;52.624;9.212;2023-06-04T09:43:36;1.00;;;0.90;;
7817;SDS011;3954;52.624;9.212;2023-06-04T09:46:09;1.30;;;1.10;;
7817;SDS011;3954;52.624;9.212;2023-06-04T09:48:37;1.40;;;1.13;;
7817;SDS011;3954;52.624;9.212;2023-06-04T09:51:06;1.10;;;1.00;;
7817;SDS011;3954;52.624;9.212;2023-06-04T09:53:33;1.67;;;1.10;;
7817;SDS011;3954;52.624;9.212;2023-06-04T09:55:59;1.23;;;1.10;;
7817;SDS011;3954;52.624;9.212;2023-06-04T09:58:26;2.53;;;1.50;;
7817;SDS011;3954;52.624;9.212;2023-06-04T10:00:53;1.40;;;1.30;;
7817;SDS011;3954;52.624;9.212;2023-06-04T10:03:19;1.33;;;1.10;;
7817;SDS011;3954;52.624;9.212;2023-06-04T10:05:49;1.83;;;1.37;;
7817;SDS011;3954;52.624;9.212;2023-06-04T10:08:16;1.40;;;1.13;;
7817;SDS011;3954;52.624;9.212;2023-06-04T10:10:43;2.60;;;1.30;;
7817;SDS011;3954;52.624;9.212;2023-06-04T10:13:14;2.13;;;1.30;;
7817;SDS011;3954;52.624;9.212;2023-06-04T10:15:40;1.58;;;1.20;;
7817;SDS011;3954;52.624;9.212;2023-06-04T10:18:06;1.50;;;1.30;;
7817;SDS011;3954;52.624;9.212;2023-06-04T10:20:33;2.87;;;1.13;;
7817;SDS011;3954;52.624;9.212;2023-06-04T10:23:00;1.40;;;1.10;;
7817;SDS011;3954;52.624;9.212;2023-06-04T10:25:26;1.80;;;1.40;;
7817;SDS011;3954;52.624;9.212;2023-06-04T10:27:53;2.05;;;1.27;;
7817;SDS011;3954;52.624;9.212;2023-06-04T10:30:19;2.03;;;1.25;;
7817;SDS011;3954;52.624;9.212;2023-06-04T10:32:45;1.93;;;1.30;;
7817;SDS011;3954;52.624;9.212;2023-06-04T10:35:11;2.60;;;1.40;;
7817;SDS011;3954;52.624;9.212;2023-06-04T10:37:39;1.27;;;1.17;;
7817;SDS011;3954;52.624;9.212;2023-06-04T10:40:07;1.90;;;1.30;;
7817;SDS011;3954;52.624;9.212;2023-06-04T10:42:37;2.43;;;1.30;;
7817;SDS011;3954;52.624;9.212;2023-06-04T10:45:04;2.63;;;1.33;;
7817;SDS011;3954;52.624;9.212;2023-06-04T10:47:30;1.17;;;1.07;;
7817;SDS011;3954;52.624;9.212;2023-06-04T10:50:06;1.53;;;1.20;;
7817;SDS011;3954;52.624;9.212;2023-06-04T10:52:32;1.77;;;1.30;;
7817;SDS011;3954;52.624;9.212;2023-06-04T10:55:02;1.40;;;1.30;;
7817;SDS011;3954;52.624;9.212;2023-06-04T10:57:30;2.13;;;1.17;;
7817;SDS011;3954;52.624;9.212;2023-06-04T10:59:57;3.60;;;1.00;;
7817;SDS011;3954;52.624;9.212;2023-06-04T11:02:23;1.10;;;1.00;;
7817;SDS011;3954;52.624;9.212;2023-06-04T11:04:58;2.03;;;1.27;;
7817;SDS011;3954;52.624;9.212;2023-06-04T11:07:26;1.23;;;1.13;;
7817;SDS011;3954;52.624;9.212;2023-06-04T11:09:53;5.63;;;1.30;;
7817;SDS011;3954;52.624;9.212;2023-06-04T11:12:19;1.93;;;1.10;;
7817;SDS011;3954;52.624;9.212;2023-06-04T11:14:54;3.40;;;1.30;;
7817;SDS011;3954;52.624;9.212;2023-06-04T11:17:20;1.83;;;1.40;;
7817;SDS011;3954;52.624;9.212;2023-06-04T11:19:46;2.00;;;1.20;;
7817;SDS011;3954;52.624;9.212;2023-06-04T11:22:12;3.27;;;0.93;;
7817;SDS011;3954;52.624;9.212;2023-06-04T11:24:38;2.33;;;1.27;;
7817;SDS011;3954;52.624;9.212;2023-06-04T11:27:04;1.17;;;1.07;;
7817;SDS011;3954;52.624;9.212;2023-06-04T11:29:31;2.63;;;1.10;;
7817;SDS011;3954;52.624;9.212;2023-06-04T11:31:59;2.70;;;1.13;;
7817;SDS011;3954;52.624;9.212;2023-06-04T11:34:25;2.10;;;1.00;;
7817;SDS011;3954;52.624;9.212;2023-06-04T11:36:51;1.43;;;1.13;;
7817;SDS011;3954;52.624;9.212;2023-06-04T11:39:20;1.73;;;1.10;;
7817;SDS011;3954;52.624;9.212;2023-06-04T11:41:46;1.50;;;1.40;;
7817;SDS011;3954;52.624;9.212;2023-06-04T11:44:12;4.30;;;1.40;;
7817;SDS011;3954;52.624;9.212;2023-06-04T11:46:39;1.53;;;1.20;;
7817;SDS011;3954;52.624;9.212;2023-06-04T11:49:07;2.80;;;1.17;;
7817;SDS011;3954;52.624;9.212;2023-06-04T11:51:33;2.93;;;1.37;;
7817;SDS011;3954;52.624;9.212;2023-06-04T11:53:59;2.37;;;1.20;;
7817;SDS011;3954;52.624;9.212;2023-06-04T11:56:26;2.30;;;1.37;;
7817;SDS011;3954;52.624;9.212;2023-06-04T11:58:53;1.47;;;1.37;;
7817;SDS011;3954;52.624;9.212;2023-06-04T12:01:19;2.03;;;1.20;;
7817;SDS011;3954;52.624;9.212;2023-06-04T12:03:45;1.33;;;1.23;;
7817;SDS011;3954;52.624;9.212;2023-06-04T12:06:14;1.97;;;1.33;;
7817;SDS011;3954;52.624;9.212;2023-06-04T12:08:44;2.93;;;1.40;;
7817;SDS011;3954;52.624;9.212;2023-06-04T12:11:19;1.60;;;1.30;;
7817;SDS011;3954;52.624;9.212;2023-06-04T12:13:45;2.07;;;1.07;;
7817;SDS011;3954;52.624;9.212;2023-06-04T12:16:13;1.77;;;1.40;;
7817;SDS011;3954;52.624;9.212;2023-06-04T12:18:40;2.13;;;1.10;;
7817;SDS011;3954;52.624;9.212;2023-06-04T12:21:16;2.47;;;1.27;;
7817;SDS011;3954;52.624;9.212;2023-06-04T12:23:44;1.67;;;1.30;;
7817;SDS011;3954;52.624;9.212;2023-06-04T12:26:19;2.80;;;1.20;;
7817;SDS011;3954;52.624;9.212;2023-06-04T12:28:58;1.43;;;1.20;;
7817;SDS011;3954;52.624;9.212;2023-06-04T12:31:24;1.40;;;1.27;;
7817;SDS011;3954;52.624;9.212;2023-06-04T12:33:50;1.57;;;1.20;;
7817;SDS011;3954;52.624;9.212;2023-06-04T12:36:17;1.20;;;1.10;;
7817;SDS011;3954;52.624;9.212;2023-06-04T12:38:43;2.17;;;1.43;;
7817;SDS011;3954;52.624;9.212;2023-06-04T12:41:09;1.40;;;1.30;;
7817;SDS011;3954;52.624;9.212;2023-06-04T12:43:35;2.03;;;1.63;;
7817;SDS011;3954;52.624;9.212;2023-06-04T12:46:02;2.23;;;1.30;;
7817;SDS011;3954;52.624;9.212;2023-06-04T12:48:28;1.50;;;1.23;;
7817;SDS011;3954;52.624;9.212;2023-06-04T12:50:54;4.57;;;1.43;;
7817;SDS011;3954;52.624;9.212;2023-06-04T12:53:22;3.17;;;1.40;;
7817;SDS011;3954;52.624;9.212;2023-06-04T12:55:48;2.43;;;1.30;;
7817;SDS011;3954;52.624;9.212;2023-06-04T12:58:14;1.23;;;1.13;;
7817;SDS011;3954;52.624;9.212;2023-06-04T13:00:39;1.57;;;1.10;;
7817;SDS011;3954;52.624;9.212;2023-06-04T13:03:08;4.80;;;3.37;;
7817;SDS011;3954;52.624;9.212;2023-06-04T13:05:36;3.40;;;3.10;;
7817;SDS011;3954;52.624;9.212;2023-06-04T13:08:02;2.60;;;1.33;;
7817;SDS011;3954;52.624;9.212;2023-06-04T13:10:29;3.07;;;1.70;;
7817;SDS011;3954;52.624;9.212;2023-06-04T13:12:55;1.40;;;1.10;;
7817;SDS011;3954;52.624;9.212;2023-06-04T13:15:22;3.30;;;1.60;;
7817;SDS011;3954;52.624;9.212;2023-06-04T13:17:48;1.40;;;1.30;;
7817;SDS011;3954;52.624;9.212;2023-06-04T13:20:14;3.73;;;1.40;;
7817;SDS011;3954;52.624;9.212;2023-06-04T13:22:40;1.30;;;1.20;;
7817;SDS011;3954;52.624;9.212;2023-06-04T13:25:08;2.30;;;1.40;;
7817;SDS011;3954;52.624;9.212;2023-06-04T13:27:36;1.57;;;1.17;;
7817;SDS011;3954;52.624;9.212;2023-06-04T13:30:02;2.00;;;1.30;;
7817;SDS011;3954;52.624;9.212;2023-06-04T13:32:28;1.33;;;1.03;;
7817;SDS011;3954;52.624;9.212;2023-06-04T13:34:54;1.40;;;1.30;;
7817;SDS011;3954;52.624;9.212;2023-06-04T13:37:20;3.50;;;1.40;;
7817;SDS011;3954;52.624;9.212;2023-06-04T13:39:46;1.30;;;1.20;;
7817;SDS011;3954;52.624;9.212;2023-06-04T13:42:12;1.70;;;1.33;;
7817;SDS011;3954;52.624;9.212;2023-06-04T13:44:39;1.77;;;1.23;;
7817;SDS011;3954;52.624;9.212;2023-06-04T13:47:05;3.00;;;1.40;;
7817;SDS011;3954;52.624;9.212;2023-06-04T13:49:32;2.13;;;1.50;;
7817;SDS011;3954;52.624;9.212;2023-06-04T13:51:58;1.40;;;1.30;;
7817;SDS011;3954;52.624;9.212;2023-06-04T13:54:24;2.17;;;1.40;;
7817;SDS011;3954;52.624;9.212;2023-06-04T13:56:51;2.67;;;1.57;;
7817;SDS011;3954;52.624;9.212;2023-06-04T13:59:17;1.60;;;1.40;;
7817;SDS011;3954;52.624;9.212;2023-06-04T14:01:44;2.27;;;1.40;;
7817;SDS011;3954;52.624;9.212;2023-06-04T14:04:10;1.90;;;1.40;;
7817;SDS011;3954;52.624;9.212;2023-06-04T14:06:36;3.77;;;1.30;;
7817;SDS011;3954;52.624;9.212;2023-06-04T14:09:03;1.30;;;1.20;;
7817;SDS011;3954;52.624;9.212;2023-06-04T14:11:29;1.37;;;1.27;;
7817;SDS011;3954;52.624;9.212;2023-06-04T14:13:55;2.00;;;1.37;;
7817;SDS011;3954;52.624;9.212;2023-06-04T14:16:21;2.27;;;1.20;;
7817;SDS011;3954;52.624;9.212;2023-06-04T14:18:48;2.03;;;1.37;;
7817;SDS011;3954;52.624;9.212;2023-06-04T14:21:14;1.50;;;1.40;;
7817;SDS011;3954;52.624;9.212;2023-06-04T14:23:40;1.70;;;1.50;;
7817;SDS011;3954;52.624;9.212;2023-06-04T14:26:06;4.20;;;1.50;;
7817;SDS011;3954;52.624;9.212;2023-06-04T14:28:32;2.80;;;1.47;;
7817;SDS011;3954;52.624;9.212;2023-06-04T14:30:58;3.33;;;1.43;;
7817;SDS011;3954;52.624;9.212;2023-06-04T14:33:24;1.57;;;1.37;;
7817;SDS011;3954;52.624;9.212;2023-06-04T14:35:51;3.20;;;1.40;;
7817;SDS011;3954;52.624;9.212;2023-06-04T14:38:17;1.80;;;1.40;;
7817;SDS011;3954;52.624;9.212;2023-06-04T14:40:43;1.97;;;1.30;;
7817;SDS011;3954;52.624;9.212;2023-06-04T14:43:10;1.70;;;1.10;;
7817;SDS011;3954;52.624;9.212;2023-06-04T14:45:36;1.30;;;1.20;;
7817;SDS011;3954;52.624;9.212;2023-06-04T14:48:05;1.83;;;1.60;;
7817;SDS011;3954;52.624;9.212;2023-06-04T14:50:32;1.60;;;1.30;;
7817;SDS011;3954;52.624;9.212;2023-06-04T14:53:00;2.57;;;1.50;;
7817;SDS011;3954;52.624;9.212;2023-06-04T14:55:26;1.50;;;1.40;;
7817;SDS011;3954;52.624;9.212;2023-06-04T14:57:52;1.67;;;1.33;;
7817;SDS011;3954;52.624;9.212;2023-06-04T15:00:18;2.00;;;1.33;;
7817;SDS011;3954;52.624;9.212;2023-06-04T15:02:44;2.27;;;1.60;;
7817;SDS011;3954;52.624;9.212;2023-06-04T15:05:10;2.43;;;1.33;;
7817;SDS011;3954;52.624;9.212;2023-06-04T15:07:36;1.50;;;1.30;;
7817;SDS011;3954;52.624;9.212;2023-06-04T15:10:04;5.80;;;1.57;;
7817;SDS011;3954;52.624;9.212;2023-06-04T15:12:31;1.80;;;1.30;;